Accueil
METAR-TAF:

Aéroports :

Bauru, São Paulo, Brésil

latitude: 22-19S, longitude: 049-04W, altitude: 590 m

Observation

Le bulletin a été fait il y a 56 minutes, à 18:00 UTC
Vent 5 kt de sud
Température 29°C
Humidité 29%
Pression 1015 hPa
Visibilité 10 km ou plus
pas de nuages en-dessous de 1500 mètres et pas de cumulonimbus.

METAR: SBBU 261800Z 18005KT CAVOK 29/09 Q1015

Heure: 15:56 (18:56 UTC)

Prévision

Le bulletin a été fait il y a 2 heures et 56 minutes, à 16:00 UTC
Prévision valable du 26 à 18 UTC au 27 à 06 UTC
Vent 7 kt de sud-est
Visibilité 10 km ou plus
pas de nuages en-dessous de 1500 mètres et pas de cumulonimbus.

TAF: SBBU 261600Z 2618/2706 13007KT CAVOK TX27/2618Z TN14/2705Z RMK PDW

METAR-TAF

Observations et prévisions météorologiques de plus de 4000 aéroports (messages METAR et TAF).

Les stations disponibles sont représentées par des disques jaunes et rouges sur la carte.

Passer la souris dessus pour voir le nom de la station.

Cliquer dessus pour voir les observations et prévisions météorologiques.

Pour changer de carte: cliquez sur les boutons verts avec une croix noire pour zoomer, sur le bouton vert avec un tiret pour effectuer un zoom arrière, ou sur les flèches vertes pour les cartes adjacentes.


METAR-TAF: